Time;durP1;ratioP1;P1;durP2;ratioP2;P2;SDS_P1;SDS_P2;PMS_P1;PMS_P2;Temp;Humidity;BMP_temperature;BMP_pressure;BME280_temperature;BME280_humidity;BME280_pressure;Samples;Min_cycle;Max_cycle;Signal;HPM_P1;HPM_P2
2023/10/12 00:01:57;;;;;;;;;;;14.80;99.90;;;;;;5132461;28;20304;-46
2023/10/12 00:04:31;;;;;;;;;;;14.80;99.90;;;;;;5134795;27;20256;-45
2023/10/12 00:07:08;;;;;;;;;;;14.80;99.90;;;;;;5129296;27;19915;-46
2023/10/12 00:09:33;;;;;;;;;;;14.80;99.90;;;;;;5123240;27;20368;-45
2023/10/12 00:12:07;;;;;;;;;;;14.80;99.90;;;;;;5117304;27;19916;-44
2023/10/12 00:14:33;;;;;;;;;;;14.70;99.90;;;;;;5117189;28;19912;-46
2023/10/12 00:16:58;;;;;;;;;;;14.60;99.90;;;;;;5116142;27;19916;-45
2023/10/12 00:19:24;;;;;;;;;;;14.60;99.90;;;;;;5123981;27;19912;-46
2023/10/12 00:21:59;;;;;;;;;;;14.60;99.90;;;;;;5117632;27;19923;-45
2023/10/12 00:24:25;;;;;;;;;;;14.50;99.90;;;;;;5120718;27;20048;-45
2023/10/12 00:26:50;;;;;;;;;;;14.50;99.90;;;;;;5125351;27;20382;-44
2023/10/12 00:29:17;;;;;;;;;;;14.50;99.90;;;;;;5116796;28;19908;-44
2023/10/12 00:31:43;;;;;;;;;;;14.50;99.90;;;;;;5116743;28;19953;-44
2023/10/12 00:34:10;;;;;;;;;;;14.50;99.90;;;;;;5116629;28;19915;-46
2023/10/12 00:36:45;;;;;;;;;;;14.50;99.90;;;;;;5116067;27;20389;-45
2023/10/12 00:39:11;;;;;;;;;;;14.40;99.90;;;;;;5117933;27;19912;-44
2023/10/12 00:41:37;;;;;;;;;;;14.40;99.90;;;;;;5120929;27;19923;-44
2023/10/12 00:49:13;;;;;;;;;;;14.40;99.90;;;;;;5136982;27;19911;-45
2023/10/12 00:51:40;;;;;;;;;;;14.40;99.90;;;;;;5135394;27;19918;-44
2023/10/12 00:54:10;;;;;;;;;;;14.40;99.90;;;;;;5124643;27;19918;-44
2023/10/12 00:56:36;;;;;;;;;;;14.40;99.90;;;;;;5131246;27;19933;-45
2023/10/12 00:59:03;;;;;;;;;;;14.40;99.90;;;;;;5136674;27;19908;-45
2023/10/12 01:01:31;;;;;;;;;;;14.40;99.90;;;;;;5136594;27;19912;-45
2023/10/12 01:03:56;;;;;;;;;;;14.40;99.90;;;;;;5131763;27;20365;-46
2023/10/12 01:08:50;;;;;;;;;;;14.40;99.90;;;;;;5128196;27;19919;-45
2023/10/12 01:11:26;;;;;;;;;;;14.40;99.90;;;;;;5115739;27;19912;-44
2023/10/12 01:16:42;;;;;;;;;;;14.40;99.90;;;;;;5127903;27;19972;-45
2023/10/12 01:19:08;;;;;;;;;;;14.40;99.90;;;;;;5136538;27;20010;-45
2023/10/12 01:21:36;;;;;;;;;;;14.40;99.90;;;;;;5126867;27;20014;-45
2023/10/12 01:24:05;;;;;;;;;;;14.30;99.90;;;;;;5115376;27;19916;-45
2023/10/12 01:26:33;;;;;;;;;;;14.30;99.90;;;;;;5128793;27;19965;-46
2023/10/12 01:29:00;;;;;;;;;;;14.30;99.90;;;;;;5114423;27;19919;-46
2023/10/12 01:31:29;;;;;;;;;;;14.30;99.90;;;;;;5119006;27;19956;-45
2023/10/12 01:33:55;;;;;;;;;;;14.30;99.90;;;;;;5114814;27;19916;-46
2023/10/12 01:36:21;;;;;;;;;;;14.20;99.90;;;;;;5115531;27;19927;-47
2023/10/12 01:38:47;;;;;;;;;;;14.10;99.90;;;;;;5115447;27;19920;-46
2023/10/12 01:41:12;;;;;;;;;;;14.00;99.90;;;;;;5116313;27;20416;-46
2023/10/12 01:43:38;;;;;;;;;;;13.90;99.90;;;;;;5115357;28;19912;-46
2023/10/12 01:46:08;;;;;;;;;;;13.80;99.90;;;;;;5097021;28;19908;-45
2023/10/12 01:48:34;;;;;;;;;;;13.70;99.90;;;;;;5130112;27;19916;-47
2023/10/12 01:51:15;;;;;;;;;;;13.60;99.90;;;;;;5117367;27;20416;-46
2023/10/12 01:53:40;;;;;;;;;;;13.60;99.90;;;;;;5115206;28;19908;-45
2023/10/12 01:56:09;;;;;;;;;;;13.60;99.90;;;;;;5114562;28;19919;-46
2023/10/12 01:58:35;;;;;;;;;;;13.60;99.90;;;;;;5129861;27;19926;-45
2023/10/12 02:01:07;;;;;;;;;;;13.60;99.90;;;;;;5135542;27;20057;-45
2023/10/12 02:03:42;;;;;;;;;;;13.70;99.90;;;;;;5135518;27;19916;-45
2023/10/12 02:06:16;;;;;;;;;;;13.70;99.90;;;;;;5134028;27;19912;-45
2023/10/12 02:11:12;;;;;;;;;;;13.60;99.90;;;;;;5134217;27;20003;-47
2023/10/12 02:13:41;;;;;;;;;;;13.60;99.90;;;;;;5118037;27;19912;-45
2023/10/12 02:16:07;;;;;;;;;;;13.50;99.90;;;;;;5114238;28;20045;-46
2023/10/12 02:18:34;;;;;;;;;;;13.50;99.90;;;;;;5114649;28;20278;-45
2023/10/12 02:23:36;;;;;;;;;;;13.50;99.90;;;;;;5135220;27;19922;-44
2023/10/12 02:26:28;;;;;;;;;;;13.50;99.90;;;;;;5124340;27;20350;-45
2023/10/12 02:28:53;;;;;;;;;;;13.50;99.90;;;;;;5133822;27;19908;-44
2023/10/12 02:31:20;;;;;;;;;;;13.50;99.90;;;;;;5119448;27;19918;-45
2023/10/12 02:33:46;;;;;;;;;;;13.50;99.90;;;;;;5114383;28;19907;-45
2023/10/12 02:36:13;;;;;;;;;;;13.40;99.90;;;;;;5116141;27;19927;-46
2023/10/12 02:38:41;;;;;;;;;;;13.40;99.90;;;;;;5114369;28;19907;-46
2023/10/12 02:41:12;;;;;;;;;;;13.50;99.90;;;;;;5115747;27;19912;-46
2023/10/12 02:43:38;;;;;;;;;;;13.50;99.90;;;;;;5114195;28;20362;-46
2023/10/12 02:46:06;;;;;;;;;;;13.40;99.90;;;;;;5122821;27;19931;-46
2023/10/12 02:48:36;;;;;;;;;;;13.40;99.90;;;;;;5131787;27;19919;-46
2023/10/12 02:51:06;;;;;;;;;;;13.40;99.90;;;;;;5116186;27;19919;-46
2023/10/12 02:53:34;;;;;;;;;;;13.40;99.90;;;;;;5114053;28;19914;-45
2023/10/12 02:56:01;;;;;;;;;;;13.30;99.90;;;;;;5115110;27;19912;-45
2023/10/12 02:58:27;;;;;;;;;;;13.30;99.90;;;;;;5113992;28;19908;-45
2023/10/12 03:00:56;;;;;;;;;;;13.40;99.90;;;;;;5113281;28;19911;-45
2023/10/12 03:05:52;;;;;;;;;;;13.40;99.90;;;;;;5127251;27;20470;-45
2023/10/12 03:08:19;;;;;;;;;;;13.40;99.90;;;;;;5115468;27;19912;-44
2023/10/12 03:11:01;;;;;;;;;;;13.40;99.90;;;;;;5113032;27;19912;-45
2023/10/12 03:13:34;;;;;;;;;;;13.30;99.90;;;;;;5113740;28;19907;-45
2023/10/12 03:16:08;;;;;;;;;;;13.30;99.90;;;;;;5113536;28;20358;-45
2023/10/12 03:18:34;;;;;;;;;;;13.30;99.90;;;;;;5113516;28;19908;-45
2023/10/12 03:21:11;;;;;;;;;;;13.20;99.90;;;;;;5126249;27;19922;-46
2023/10/12 03:23:46;;;;;;;;;;;13.20;99.90;;;;;;5134083;27;20374;-45
2023/10/12 03:26:24;;;;;;;;;;;13.20;99.90;;;;;;5119910;27;19918;-46
2023/10/12 03:28:58;;;;;;;;;;;13.20;99.90;;;;;;5129891;27;19911;-46
2023/10/12 03:31:23;;;;;;;;;;;13.20;99.90;;;;;;5120111;27;19919;-45
2023/10/12 03:33:56;;;;;;;;;;;13.10;99.90;;;;;;5113347;28;19915;-45
2023/10/12 03:36:23;;;;;;;;;;;13.10;99.90;;;;;;5125296;27;20369;-45
2023/10/12 03:41:55;;;;;;;;;;;13.10;99.90;;;;;;5087290;28;20373;-45
2023/10/12 03:47:14;;;;;;;;;;;13.10;99.90;;;;;;5116592;28;20419;-45
2023/10/12 03:49:59;;;;;;;;;;;13.10;99.90;;;;;;5114985;28;20282;-45
2023/10/12 03:52:50;;;;;;;;;;;13.10;99.90;;;;;;5120938;28;19911;-46
2023/10/12 03:55:19;;;;;;;;;;;13.10;99.90;;;;;;5129526;28;19911;-45
2023/10/12 03:57:50;;;;;;;;;;;13.10;99.90;;;;;;5125809;28;19955;-47
2023/10/12 04:00:25;;;;;;;;;;;13.10;99.90;;;;;;5112862;28;19959;-45
2023/10/12 04:05:21;;;;;;;;;;;13.10;99.90;;;;;;5131739;28;19918;-45
2023/10/12 04:13:09;;;;;;;;;;;13.20;99.90;;;;;;5112211;28;20002;-45
2023/10/12 04:18:19;;;;;;;;;;;13.20;99.90;;;;;;5132320;28;19918;-46
2023/10/12 04:20:45;;;;;;;;;;;13.30;99.90;;;;;;5131473;28;19911;-45
2023/10/12 04:25:49;;;;;;;;;;;13.20;99.90;;;;;;5128725;28;19980;-45
2023/10/12 04:28:17;;;;;;;;;;;13.30;99.90;;;;;;5123720;28;19911;-47
2023/10/12 04:33:24;;;;;;;;;;;13.20;99.90;;;;;;5133434;28;20269;-45
2023/10/12 04:38:27;;;;;;;;;;;13.20;99.90;;;;;;5133460;28;19933;-45
2023/10/12 04:41:38;;;;;;;;;;;13.20;99.90;;;;;;5130722;28;20386;-44
2023/10/12 04:43:54;;;;;;;;;;;13.20;99.90;;;;;;5119271;28;19955;-44
2023/10/12 04:48:48;;;;;;;;;;;13.20;99.90;;;;;;5126626;28;20057;-46
2023/10/12 04:51:21;;;;;;;;;;;13.20;99.90;;;;;;5122882;27;20006;-45
2023/10/12 04:53:57;;;;;;;;;;;13.20;99.90;;;;;;5115981;28;19912;-45
2023/10/12 04:56:23;;;;;;;;;;;13.20;99.90;;;;;;5115751;27;19962;-44
2023/10/12 04:59:14;;;;;;;;;;;13.20;99.90;;;;;;5122814;27;19911;-44
2023/10/12 05:04:35;;;;;;;;;;;13.10;99.90;;;;;;5129668;27;19918;-45
2023/10/12 05:07:53;;;;;;;;;;;13.10;99.90;;;;;;5124037;27;19916;-45
2023/10/12 05:09:52;;;;;;;;;;;13.10;99.90;;;;;;5133297;27;20284;-45
2023/10/12 05:12:18;;;;;;;;;;;13.10;99.90;;;;;;5125059;27;19991;-44
2023/10/12 05:14:44;;;;;;;;;;;13.10;99.90;;;;;;5115912;28;19908;-45
2023/10/12 05:17:09;;;;;;;;;;;13.10;99.90;;;;;;5128342;27;20344;-45
2023/10/12 05:19:35;;;;;;;;;;;13.10;99.90;;;;;;5134281;27;19955;-45
2023/10/12 05:22:01;;;;;;;;;;;13.10;99.90;;;;;;5136190;27;19919;-46
2023/10/12 05:24:26;;;;;;;;;;;13.20;99.90;;;;;;5132608;27;19912;-45
2023/10/12 05:26:54;;;;;;;;;;;13.30;99.90;;;;;;5129418;27;19912;-49
2023/10/12 05:29:34;;;;;;;;;;;13.30;99.90;;;;;;5135807;27;20003;-45
2023/10/12 05:32:06;;;;;;;;;;;13.40;99.90;;;;;;5132680;27;20010;-45
2023/10/12 05:34:34;;;;;;;;;;;13.40;99.90;;;;;;5134183;27;19934;-45
2023/10/12 05:39:46;;;;;;;;;;;13.40;99.90;;;;;;5135068;27;19995;-44
2023/10/12 05:42:14;;;;;;;;;;;13.40;99.90;;;;;;5132465;27;19926;-45
2023/10/12 05:44:43;;;;;;;;;;;13.40;99.90;;;;;;5119448;27;19972;-44
2023/10/12 05:47:15;;;;;;;;;;;13.40;99.90;;;;;;5135902;27;20415;-46
2023/10/12 05:49:41;;;;;;;;;;;13.40;99.90;;;;;;5133926;27;19964;-45
2023/10/12 05:52:08;;;;;;;;;;;13.50;99.90;;;;;;5114953;28;19911;-45
2023/10/12 05:54:39;;;;;;;;;;;13.50;99.90;;;;;;5117403;27;19915;-46
2023/10/12 05:57:19;;;;;;;;;;;13.40;99.90;;;;;;5115876;27;20045;-44
2023/10/12 05:59:44;;;;;;;;;;;13.40;99.90;;;;;;5134680;27;19907;-45
2023/10/12 06:02:10;;;;;;;;;;;13.40;99.90;;;;;;5135383;27;19925;-45
2023/10/12 06:04:36;;;;;;;;;;;13.50;99.90;;;;;;5130957;27;20362;-45
2023/10/12 06:07:03;;;;;;;;;;;13.50;99.90;;;;;;5128051;27;19915;-46
2023/10/12 06:09:35;;;;;;;;;;;13.40;99.90;;;;;;5132323;27;19961;-46
2023/10/12 06:12:07;;;;;;;;;;;13.50;99.90;;;;;;5118515;27;19962;-45
2023/10/12 06:14:38;;;;;;;;;;;13.40;99.90;;;;;;5118417;27;19916;-46
2023/10/12 06:17:05;;;;;;;;;;;13.40;99.90;;;;;;5121490;27;20004;-45
2023/10/12 06:19:34;;;;;;;;;;;13.40;99.90;;;;;;5114797;28;19919;-45
2023/10/12 06:24:54;;;;;;;;;;;13.30;99.90;;;;;;5130620;27;20380;-46
2023/10/12 06:29:50;;;;;;;;;;;13.20;99.90;;;;;;5114541;28;19955;-45
2023/10/12 06:33:17;;;;;;;;;;;13.20;99.90;;;;;;5114519;28;19912;-44
2023/10/12 06:45:46;;;;;;;;;;;13.10;99.90;;;;;;5115235;27;19926;-45
2023/10/12 06:51:02;;;;;;;;;;;12.90;99.90;;;;;;5114093;28;19915;-44
2023/10/12 06:53:34;;;;;;;;;;;12.90;99.90;;;;;;5114065;28;20270;-45
2023/10/12 06:56:13;;;;;;;;;;;12.80;99.90;;;;;;5115907;27;19980;-45
2023/10/12 06:58:38;;;;;;;;;;;12.80;99.90;;;;;;5126239;27;19911;-45
2023/10/12 07:01:19;;;;;;;;;;;12.70;99.90;;;;;;5129153;27;19912;-46
2023/10/12 07:03:49;;;;;;;;;;;12.70;99.90;;;;;;5134347;27;19916;-45
2023/10/12 07:06:15;;;;;;;;;;;12.60;99.90;;;;;;5134489;27;19908;-45
2023/10/12 07:08:42;;;;;;;;;;;12.60;99.90;;;;;;5134316;27;19911;-45
2023/10/12 07:11:11;;;;;;;;;;;12.60;99.90;;;;;;5120802;27;20078;-45
2023/10/12 07:13:39;;;;;;;;;;;12.60;99.90;;;;;;5113352;28;20006;-45
2023/10/12 07:16:07;;;;;;;;;;;12.60;99.90;;;;;;5114489;27;19912;-44
2023/10/12 07:18:42;;;;;;;;;;;12.70;99.90;;;;;;5118047;27;20354;-46
2023/10/12 07:21:20;;;;;;;;;;;12.70;99.90;;;;;;5115659;27;19911;-44
2023/10/12 07:23:52;;;;;;;;;;;12.80;99.90;;;;;;5122783;27;20430;-46
2023/10/12 07:26:21;;;;;;;;;;;12.80;99.90;;;;;;5116589;27;20339;-46
2023/10/12 07:28:49;;;;;;;;;;;12.80;99.90;;;;;;5113424;28;19908;-44
2023/10/12 07:33:52;;;;;;;;;;;12.80;99.90;;;;;;5133919;27;19908;-45
2023/10/12 07:36:17;;;;;;;;;;;12.90;99.90;;;;;;5131414;27;20423;-45
2023/10/12 07:39:14;;;;;;;;;;;12.90;99.90;;;;;;5133836;27;19911;-45
2023/10/12 07:41:41;;;;;;;;;;;12.90;99.90;;;;;;5133877;27;19930;-46
2023/10/12 07:44:07;;;;;;;;;;;13.00;99.90;;;;;;5113524;27;19958;-44
2023/10/12 07:46:35;;;;;;;;;;;13.10;99.90;;;;;;5129241;28;19929;-44
2023/10/12 07:49:22;;;;;;;;;;;13.20;99.90;;;;;;5115116;28;19911;-46
2023/10/12 07:57:14;;;;;;;;;;;13.40;99.90;;;;;;5119347;28;19996;-44
2023/10/12 07:59:59;;;;;;;;;;;13.50;99.90;;;;;;5115569;28;20010;-44
2023/10/12 08:10:48;;;;;;;;;;;13.80;99.90;;;;;;5116839;28;20274;-45
2023/10/12 08:15:55;;;;;;;;;;;13.60;99.90;;;;;;5117691;28;19951;-45
2023/10/12 08:21:25;;;;;;;;;;;13.70;99.90;;;;;;5124241;28;19933;-45
2023/10/12 08:23:57;;;;;;;;;;;13.80;99.90;;;;;;5133199;28;20002;-45
2023/10/12 08:26:35;;;;;;;;;;;13.90;99.90;;;;;;5130984;27;20358;-44
2023/10/12 08:29:09;;;;;;;;;;;14.00;99.90;;;;;;5115342;27;20449;-44
2023/10/12 08:31:43;;;;;;;;;;;14.00;99.90;;;;;;5129844;27;19920;-44
2023/10/12 08:39:38;;;;;;;;;;;14.10;99.90;;;;;;5119384;27;20385;-46
2023/10/12 08:44:51;;;;;;;;;;;14.20;99.90;;;;;;5135381;27;19942;-44
2023/10/12 08:50:05;;;;;;;;;;;14.20;99.90;;;;;;5119626;27;19934;-45
2023/10/12 08:52:32;;;;;;;;;;;14.20;99.90;;;;;;5129356;27;19991;-44
2023/10/12 08:55:03;;;;;;;;;;;14.30;99.90;;;;;;5136752;27;19914;-44
2023/10/12 08:57:55;;;;;;;;;;;14.20;99.90;;;;;;5136959;27;20017;-44
2023/10/12 09:00:40;;;;;;;;;;;14.30;99.90;;;;;;5136813;27;19919;-45
2023/10/12 09:03:14;;;;;;;;;;;14.20;99.90;;;;;;5136321;27;19972;-44
2023/10/12 09:05:40;;;;;;;;;;;14.20;99.90;;;;;;5130836;27;20007;-46
2023/10/12 09:10:48;;;;;;;;;;;14.20;99.90;;;;;;5136672;27;19911;-45
2023/10/12 09:13:17;;;;;;;;;;;14.30;99.90;;;;;;5128974;27;19918;-44
2023/10/12 09:15:45;;;;;;;;;;;14.30;99.90;;;;;;5124897;27;19958;-45
2023/10/12 09:18:12;;;;;;;;;;;14.40;99.90;;;;;;5123371;27;19967;-44
2023/10/12 09:20:41;;;;;;;;;;;14.50;99.90;;;;;;5121242;27;19911;-44
2023/10/12 09:23:15;;;;;;;;;;;14.50;99.90;;;;;;5121750;27;19919;-45
2023/10/12 09:28:27;;;;;;;;;;;14.60;99.90;;;;;;5131060;27;20024;-45
2023/10/12 09:31:00;;;;;;;;;;;14.60;99.90;;;;;;5123153;27;19957;-44
2023/10/12 09:34:31;;;;;;;;;;;14.60;99.90;;;;;;5124524;27;19948;-45
2023/10/12 09:36:14;;;;;;;;;;;14.60;99.90;;;;;;5112861;27;20443;-46
2023/10/12 09:38:40;;;;;;;;;;;14.70;99.90;;;;;;5127947;27;19930;-44
2023/10/12 09:41:08;;;;;;;;;;;14.70;99.90;;;;;;5136055;27;19907;-44
2023/10/12 09:43:38;;;;;;;;;;;14.70;99.90;;;;;;5115701;27;19915;-44
2023/10/12 09:46:07;;;;;;;;;;;14.70;99.90;;;;;;5128707;27;19915;-44
2023/10/12 09:48:38;;;;;;;;;;;14.70;99.90;;;;;;5134588;27;19912;-46
2023/10/12 09:51:07;;;;;;;;;;;14.70;99.90;;;;;;5115486;27;19908;-45
2023/10/12 09:53:37;;;;;;;;;;;14.80;99.90;;;;;;5115366;27;20316;-44
2023/10/12 09:56:11;;;;;;;;;;;14.90;99.90;;;;;;5123961;27;19907;-44
2023/10/12 09:58:43;;;;;;;;;;;14.90;99.90;;;;;;5135597;27;19907;-45
2023/10/12 10:01:15;;;;;;;;;;;14.80;99.90;;;;;;5119386;27;20861;-44
2023/10/12 10:03:52;;;;;;;;;;;14.90;99.90;;;;;;5122528;27;19920;-44
2023/10/12 10:06:45;;;;;;;;;;;14.90;99.90;;;;;;5115014;28;19915;-45
2023/10/12 10:11:40;;;;;;;;;;;15.10;99.90;;;;;;5117254;27;20323;-46
2023/10/12 10:14:09;;;;;;;;;;;15.10;99.90;;;;;;5114763;28;19951;-44
2023/10/12 10:16:46;;;;;;;;;;;15.20;99.90;;;;;;5114731;28;19915;-45
2023/10/12 10:19:16;;;;;;;;;;;15.30;99.90;;;;;;5114817;28;19961;-44
2023/10/12 10:21:49;;;;;;;;;;;15.40;99.90;;;;;;5114456;28;20388;-45
2023/10/12 10:24:19;;;;;;;;;;;15.40;99.90;;;;;;5114735;28;19962;-44
2023/10/12 10:26:47;;;;;;;;;;;15.40;99.90;;;;;;5114510;28;19911;-44
2023/10/12 10:29:17;;;;;;;;;;;15.40;99.90;;;;;;5114534;28;19907;-44
2023/10/12 10:31:45;;;;;;;;;;;15.30;99.90;;;;;;5114440;28;19907;-44
2023/10/12 10:34:13;;;;;;;;;;;15.20;99.90;;;;;;5114358;28;19912;-45
2023/10/12 10:36:40;;;;;;;;;;;15.20;99.90;;;;;;5114257;28;19974;-44
2023/10/12 10:39:28;;;;;;;;;;;15.10;99.90;;;;;;5114264;28;19912;-45
2023/10/12 10:41:56;;;;;;;;;;;15.20;99.90;;;;;;5114187;28;19912;-45
2023/10/12 10:44:22;;;;;;;;;;;15.20;99.90;;;;;;5114169;28;19912;-44
2023/10/12 10:46:50;;;;;;;;;;;15.30;99.90;;;;;;5114353;28;20370;-45
2023/10/12 10:49:17;;;;;;;;;;;15.30;99.90;;;;;;5112537;28;20153;-44
2023/10/12 10:51:48;;;;;;;;;;;15.30;99.90;;;;;;5114063;28;19947;-44
2023/10/12 10:54:20;;;;;;;;;;;15.40;99.90;;;;;;5114117;28;19908;-45
2023/10/12 10:56:49;;;;;;;;;;;15.40;99.90;;;;;;5113898;28;19931;-44
2023/10/12 10:59:18;;;;;;;;;;;15.40;99.90;;;;;;5116525;27;19918;-44
2023/10/12 11:01:50;;;;;;;;;;;15.40;99.90;;;;;;5123256;27;19981;-43
2023/10/12 11:04:26;;;;;;;;;;;15.40;99.90;;;;;;5114323;27;20377;-45
2023/10/12 11:06:53;;;;;;;;;;;15.40;99.90;;;;;;5120250;27;19918;-45
2023/10/12 11:09:29;;;;;;;;;;;15.50;99.90;;;;;;5134454;27;19930;-44
2023/10/12 11:11:58;;;;;;;;;;;15.40;99.90;;;;;;5134227;27;20385;-44
2023/10/12 11:14:25;;;;;;;;;;;15.40;99.90;;;;;;5134303;27;19912;-45
2023/10/12 11:16:51;;;;;;;;;;;15.30;99.90;;;;;;5132826;27;20361;-45
2023/10/12 11:19:23;;;;;;;;;;;15.30;99.90;;;;;;5126385;27;19935;-44
2023/10/12 11:21:52;;;;;;;;;;;15.20;99.90;;;;;;5113458;27;19922;-45
2023/10/12 11:24:18;;;;;;;;;;;15.20;99.90;;;;;;5114252;27;19926;-43
2023/10/12 11:26:54;;;;;;;;;;;15.30;99.90;;;;;;5126289;27;19908;-45
2023/10/12 11:29:20;;;;;;;;;;;15.30;99.90;;;;;;5114279;27;19911;-44
2023/10/12 11:32:16;;;;;;;;;;;15.40;99.90;;;;;;5111118;27;19915;-45
2023/10/12 11:34:45;;;;;;;;;;;15.40;99.90;;;;;;5122131;27;20006;-44
2023/10/12 11:37:13;;;;;;;;;;;15.60;99.90;;;;;;5114628;28;19998;-44
2023/10/12 11:39:49;;;;;;;;;;;15.60;99.90;;;;;;5117705;28;19912;-44
2023/10/12 11:42:14;;;;;;;;;;;15.60;99.90;;;;;;5114824;27;19930;-43
2023/10/12 11:44:43;;;;;;;;;;;15.60;99.90;;;;;;5123589;27;19911;-45
2023/10/12 11:47:30;;;;;;;;;;;15.60;99.90;;;;;;5114038;28;19954;-44
2023/10/12 11:49:56;;;;;;;;;;;15.60;99.90;;;;;;5115347;28;19965;-43
2023/10/12 11:52:37;;;;;;;;;;;15.60;99.90;;;;;;5111258;28;19920;-46
2023/10/12 11:55:27;;;;;;;;;;;15.50;99.90;;;;;;5116019;28;19912;-45
2023/10/12 11:57:58;;;;;;;;;;;15.40;99.90;;;;;;5115715;28;19911;-45
2023/10/12 12:00:29;;;;;;;;;;;15.40;99.90;;;;;;5114266;28;19908;-45
2023/10/12 12:02:59;;;;;;;;;;;15.40;99.90;;;;;;5117191;28;20370;-45
2023/10/12 12:05:29;;;;;;;;;;;15.40;99.90;;;;;;5122726;27;20285;-44
2023/10/12 12:08:18;;;;;;;;;;;15.40;99.90;;;;;;5137936;27;19911;-45
2023/10/12 12:10:45;;;;;;;;;;;15.50;99.90;;;;;;5137816;27;19907;-43
2023/10/12 12:13:12;;;;;;;;;;;15.50;99.90;;;;;;5137874;27;19911;-45
2023/10/12 12:15:43;;;;;;;;;;;15.50;99.90;;;;;;5128333;27;19920;-44
2023/10/12 12:18:21;;;;;;;;;;;15.50;99.90;;;;;;5137610;27;20002;-44
2023/10/12 12:20:47;;;;;;;;;;;15.40;99.90;;;;;;5127644;27;19919;-43
2023/10/12 12:23:16;;;;;;;;;;;15.50;99.90;;;;;;5117038;28;19916;-44
2023/10/12 12:25:42;;;;;;;;;;;15.50;99.90;;;;;;5122296;27;20277;-44
2023/10/12 12:28:14;;;;;;;;;;;15.50;99.90;;;;;;5137485;27;20357;-44
2023/10/12 12:30:46;;;;;;;;;;;15.50;99.90;;;;;;5137367;27;19916;-45
2023/10/12 12:33:17;;;;;;;;;;;15.50;99.90;;;;;;5137501;27;19913;-45
2023/10/12 12:35:54;;;;;;;;;;;15.40;99.90;;;;;;5132446;27;20014;-44
2023/10/12 12:38:44;;;;;;;;;;;15.40;99.90;;;;;;5116948;28;19988;-46
2023/10/12 12:41:18;;;;;;;;;;;15.30;99.90;;;;;;5118529;27;19907;-44
2023/10/12 12:43:47;;;;;;;;;;;15.30;99.90;;;;;;5123121;27;19920;-44
2023/10/12 12:46:12;;;;;;;;;;;15.30;99.90;;;;;;5130464;27;20388;-44
2023/10/12 12:48:38;;;;;;;;;;;15.30;99.90;;;;;;5117139;27;19995;-44
2023/10/12 12:51:10;;;;;;;;;;;15.30;99.90;;;;;;5120788;27;19961;-44
2023/10/12 12:53:35;;;;;;;;;;;15.30;99.90;;;;;;5117788;27;19937;-44
2023/10/12 12:56:02;;;;;;;;;;;15.30;99.90;;;;;;5120229;27;19908;-45
2023/10/12 12:58:28;;;;;;;;;;;15.30;99.90;;;;;;5122006;27;19912;-45
2023/10/12 13:00:54;;;;;;;;;;;15.30;99.90;;;;;;5124455;27;20369;-45
2023/10/12 13:03:20;;;;;;;;;;;15.30;99.90;;;;;;5128686;27;19927;-45
2023/10/12 13:05:46;;;;;;;;;;;15.30;99.90;;;;;;5119082;27;19907;-44
2023/10/12 13:08:12;;;;;;;;;;;15.30;99.90;;;;;;5124711;27;19921;-43
2023/10/12 13:10:38;;;;;;;;;;;15.30;99.90;;;;;;5120348;27;19915;-44
2023/10/12 13:13:04;;;;;;;;;;;15.20;99.90;;;;;;5115394;28;19908;-44
2023/10/12 13:15:31;;;;;;;;;;;15.20;99.90;;;;;;5116525;27;20755;-44
2023/10/12 13:17:59;;;;;;;;;;;15.10;99.90;;;;;;5118124;27;19912;-44
2023/10/12 13:20:31;;;;;;;;;;;15.10;99.90;;;;;;5118444;27;20294;-45
2023/10/12 13:22:56;;;;;;;;;;;15.10;99.90;;;;;;5130503;27;19967;-45
2023/10/12 13:25:22;;;;;;;;;;;15.00;99.90;;;;;;5133378;27;19947;-45
2023/10/12 13:27:49;;;;;;;;;;;15.10;99.90;;;;;;5120543;27;19912;-44
2023/10/12 13:30:15;;;;;;;;;;;15.10;99.90;;;;;;5128252;27;19907;-44
2023/10/12 13:32:44;;;;;;;;;;;15.10;99.90;;;;;;5123312;27;19963;-44
2023/10/12 13:35:28;;;;;;;;;;;15.10;99.90;;;;;;5136207;27;20017;-45
2023/10/12 13:37:55;;;;;;;;;;;15.10;99.90;;;;;;5131436;27;19919;-45
2023/10/12 13:40:20;;;;;;;;;;;15.10;99.90;;;;;;5118477;27;20467;-44
2023/10/12 13:42:46;;;;;;;;;;;15.10;99.90;;;;;;5115638;27;20026;-45
2023/10/12 13:45:18;;;;;;;;;;;15.00;99.90;;;;;;5136171;27;20401;-45
2023/10/12 13:47:46;;;;;;;;;;;15.00;99.90;;;;;;5135901;27;19907;-45
2023/10/12 13:50:12;;;;;;;;;;;15.00;99.90;;;;;;5120614;27;20286;-44
2023/10/12 13:52:38;;;;;;;;;;;14.90;99.90;;;;;;5119783;27;21729;-44
2023/10/12 13:55:11;;;;;;;;;;;14.90;99.90;;;;;;5117969;27;20471;-44
2023/10/12 13:57:50;;;;;;;;;;;14.90;99.90;;;;;;5114652;27;19934;-44
2023/10/12 14:00:25;;;;;;;;;;;14.80;99.90;;;;;;5130423;27;19916;-44
2023/10/12 14:02:56;;;;;;;;;;;14.80;99.90;;;;;;5125869;27;20006;-44
2023/10/12 14:05:27;;;;;;;;;;;14.80;99.90;;;;;;5133097;27;19972;-46
2023/10/12 14:07:58;;;;;;;;;;;14.80;99.90;;;;;;5120247;27;19911;-44
2023/10/12 14:10:24;;;;;;;;;;;14.90;99.90;;;;;;5127330;27;19934;-44
2023/10/12 14:12:53;;;;;;;;;;;14.80;99.90;;;;;;5134026;27;19915;-44
2023/10/12 14:15:21;;;;;;;;;;;14.80;99.90;;;;;;5121674;27;20316;-44
2023/10/12 14:17:47;;;;;;;;;;;14.80;99.90;;;;;;5128369;27;19919;-44
2023/10/12 14:20:13;;;;;;;;;;;14.70;99.90;;;;;;5122787;27;20282;-45
2023/10/12 14:22:42;;;;;;;;;;;14.60;99.90;;;;;;5115819;27;19915;-45
2023/10/12 14:25:08;;;;;;;;;;;14.60;99.90;;;;;;5122665;27;20358;-44
2023/10/12 14:27:33;;;;;;;;;;;14.50;99.90;;;;;;5134987;27;19953;-44
2023/10/12 14:30:13;;;;;;;;;;;14.50;99.90;;;;;;5118827;27;19951;-44
2023/10/12 14:32:40;;;;;;;;;;;14.50;99.90;;;;;;5128896;27;19911;-44
2023/10/12 14:35:06;;;;;;;;;;;14.50;99.90;;;;;;5118685;27;19912;-47
2023/10/12 14:37:36;;;;;;;;;;;14.50;99.90;;;;;;5116282;27;19968;-44
2023/10/12 14:40:05;;;;;;;;;;;14.50;99.90;;;;;;5120269;27;19911;-44
2023/10/12 14:42:32;;;;;;;;;;;14.40;99.90;;;;;;5126275;27;19919;-45
2023/10/12 14:44:58;;;;;;;;;;;14.40;99.90;;;;;;5125787;27;19911;-44
2023/10/12 14:47:23;;;;;;;;;;;14.40;99.90;;;;;;5121251;27;19912;-44
2023/10/12 14:49:50;;;;;;;;;;;14.40;99.90;;;;;;5115051;27;19948;-45
2023/10/12 14:52:17;;;;;;;;;;;14.30;99.90;;;;;;5117708;27;19933;-45
2023/10/12 14:54:42;;;;;;;;;;;14.30;99.90;;;;;;5120204;27;19935;-45
2023/10/12 14:57:10;;;;;;;;;;;14.30;99.90;;;;;;5120431;27;20370;-43
2023/10/12 14:59:35;;;;;;;;;;;14.30;99.90;;;;;;5121500;27;19945;-46
2023/10/12 15:02:09;;;;;;;;;;;14.40;99.90;;;;;;5119096;27;19919;-45
2023/10/12 15:04:41;;;;;;;;;;;14.30;99.90;;;;;;5128369;27;19915;-45
2023/10/12 15:07:09;;;;;;;;;;;14.30;99.90;;;;;;5120416;27;19911;-46
2023/10/12 15:09:35;;;;;;;;;;;14.30;99.90;;;;;;5120423;27;19956;-44
2023/10/12 15:12:05;;;;;;;;;;;14.20;99.90;;;;;;5116803;27;19994;-44
2023/10/12 15:14:31;;;;;;;;;;;14.20;99.90;;;;;;5119677;27;19918;-45
2023/10/12 15:16:57;;;;;;;;;;;14.20;99.90;;;;;;5122779;27;19908;-44
2023/10/12 15:19:22;;;;;;;;;;;14.20;99.90;;;;;;5114355;27;19920;-44
2023/10/12 15:21:49;;;;;;;;;;;14.20;99.90;;;;;;5115396;27;19963;-44
2023/10/12 15:24:14;;;;;;;;;;;14.20;99.90;;;;;;5115738;27;19920;-46
2023/10/12 15:26:40;;;;;;;;;;;14.20;99.90;;;;;;5118010;27;19964;-45
2023/10/12 15:29:08;;;;;;;;;;;14.20;99.90;;;;;;5119638;27;20426;-44
2023/10/12 15:31:33;;;;;;;;;;;14.20;99.90;;;;;;5117895;27;19915;-45
2023/10/12 15:33:59;;;;;;;;;;;14.20;99.90;;;;;;5113370;28;19999;-44
2023/10/12 15:36:25;;;;;;;;;;;14.20;99.90;;;;;;5114801;27;19980;-45
2023/10/12 15:38:51;;;;;;;;;;;14.10;99.90;;;;;;5129259;27;19916;-44
2023/10/12 15:41:19;;;;;;;;;;;14.10;99.90;;;;;;5127776;27;20014;-44
2023/10/12 15:43:46;;;;;;;;;;;14.10;99.90;;;;;;5131790;27;19923;-45
2023/10/12 15:46:11;;;;;;;;;;;14.00;99.90;;;;;;5125172;27;20017;-45
2023/10/12 15:48:37;;;;;;;;;;;14.10;99.90;;;;;;5115750;27;20003;-44
2023/10/12 15:51:03;;;;;;;;;;;14.10;99.90;;;;;;5118927;28;19912;-45
2023/10/12 15:53:28;;;;;;;;;;;14.00;99.90;;;;;;5113335;28;19915;-44
2023/10/12 15:55:54;;;;;;;;;;;14.00;99.90;;;;;;5117046;28;19922;-45
2023/10/12 15:58:20;;;;;;;;;;;14.00;99.90;;;;;;5115134;28;20362;-44
2023/10/12 16:00:45;;;;;;;;;;;14.00;99.90;;;;;;5126589;28;19915;-45
2023/10/12 16:03:13;;;;;;;;;;;14.00;99.90;;;;;;5112996;28;20286;-45
2023/10/12 16:05:41;;;;;;;;;;;14.00;99.90;;;;;;5112623;28;19915;-45
2023/10/12 16:08:12;;;;;;;;;;;13.90;99.90;;;;;;5113104;28;20297;-46
2023/10/12 16:10:38;;;;;;;;;;;14.00;99.90;;;;;;5115407;28;19911;-46
2023/10/12 16:13:08;;;;;;;;;;;13.90;99.90;;;;;;5112713;28;19964;-44
2023/10/12 16:15:35;;;;;;;;;;;13.90;99.90;;;;;;5115710;28;19908;-44
2023/10/12 16:18:01;;;;;;;;;;;13.90;99.90;;;;;;5113130;28;19922;-45
2023/10/12 16:20:26;;;;;;;;;;;13.90;99.90;;;;;;5113039;28;19908;-45
2023/10/12 16:22:53;;;;;;;;;;;13.80;99.90;;;;;;5115408;28;20281;-44